Airfield :
LOGIN :

Register | Disclaimer

   EN    FR    IT 

 










Legend :    VFR   Marginal VFR   IFR   Intensive IFR   Very Intensive IFR
Visi :
Ceiling :
>= 8 km
>= 3000ft
5 to 8 km
1000 to 3000 ft
1500m to 5 km
500 to 1000 ft
800 to 1500m
200 to 500 ft
< 800m
< 200 ft
Symbols :   Thunderstorms  Fog  Heavy snow  Heavy precipitations  Wind > 20 kt
SIGMETs :     Misc.  Thunderstorms  Icing  Turbulence  Mountain Waves  Volcanic Ashes






- Airport Elevation : 876 ft
- IATA code : MBX


LJMB - Maribor

CURRENT METAR :
  • 270630Z VRB01KT 1000 R32/0900N BR OVC002 M01/M01 Q1019

EXPIRED METARs :
  • 270600Z VRB01KT 1000 R32/0800N BR OVC002 M01/M01 Q1019
  • 270530Z VRB02KT 1200 R32/P1500N BR OVC002 M01/M01 Q1019
  • 270500Z 00000KT 1000 R32/P2000N BR OVC002 M01/M01 Q1019
  • 270430Z AUTO 00000KT 1300 R32/P2000 BR OVC004/// M01/M02 Q1019
  • 270400Z AUTO VRB01KT 3400 BR OVC004/// M01/M01 Q1019

TAF TAF LJMB
Valid from the 27 at 06:00 until the 28 at 06:00 UTC


270500Z 2706/2806 VRB02KT 0300 FZFG VV002
TEMPO 2706/2712 0500
PROB40 2712/2718 18005KT 9999 NSW FEW030
BECMG 2718/2721 18008KT 9999 NSW FEW030
TEMPO 2721/2806 18013G25KT



MET'MAP, your aeronautical weather chart ! - Copyright ORBIFLY December 2007 - Disclaimer

ORBIFLY MET'MAP TEAM :

Programming & Development : Alexandra Zaïnal
Concept & original design : Baudouin d'Aumeries
Assistance for programming : Marc-Olivier Méhu
Technical & hardware support : Manuel Goepfert

Contact : metmap@orbifly.com




SOURCES & CREDITS :

   NOAA